sensor_id;sensor_type;location;lat;lon;timestamp;temperature;humidity
11812;DHT22;5963;50.184;9.162;2022-10-17T00:01:48;16.90;99.90
11812;DHT22;5963;50.184;9.162;2022-10-17T00:04:18;16.80;99.90
11812;DHT22;5963;50.184;9.162;2022-10-17T00:06:49;16.70;99.90
11812;DHT22;5963;50.184;9.162;2022-10-17T00:09:25;16.80;99.90
11812;DHT22;5963;50.184;9.162;2022-10-17T00:11:56;16.80;99.90
11812;DHT22;5963;50.184;9.162;2022-10-17T00:14:31;16.80;99.90
11812;DHT22;5963;50.184;9.162;2022-10-17T00:17:05;16.60;99.90
11812;DHT22;5963;50.184;9.162;2022-10-17T00:19:53;16.80;99.90
11812;DHT22;5963;50.184;9.162;2022-10-17T00:22:27;16.70;99.90
11812;DHT22;5963;50.184;9.162;2022-10-17T00:24:59;16.70;99.90
11812;DHT22;5963;50.184;9.162;2022-10-17T00:27:30;16.70;99.90
11812;DHT22;5963;50.184;9.162;2022-10-17T00:30:06;16.70;99.90
11812;DHT22;5963;50.184;9.162;2022-10-17T00:32:52;16.70;99.90
11812;DHT22;5963;50.184;9.162;2022-10-17T00:35:23;16.60;99.90
11812;DHT22;5963;50.184;9.162;2022-10-17T00:37:54;16.40;99.90
11812;DHT22;5963;50.184;9.162;2022-10-17T00:40:24;16.30;99.90
11812;DHT22;5963;50.184;9.162;2022-10-17T00:42:56;16.30;99.90
11812;DHT22;5963;50.184;9.162;2022-10-17T00:45:28;16.30;99.90
11812;DHT22;5963;50.184;9.162;2022-10-17T00:48:05;16.10;99.90
11812;DHT22;5963;50.184;9.162;2022-10-17T00:50:38;15.90;99.90
11812;DHT22;5963;50.184;9.162;2022-10-17T00:53:12;15.80;99.90
11812;DHT22;5963;50.184;9.162;2022-10-17T00:55:50;15.70;99.90
11812;DHT22;5963;50.184;9.162;2022-10-17T00:58:23;15.60;99.90
11812;DHT22;5963;50.184;9.162;2022-10-17T01:01:03;15.60;99.90
11812;DHT22;5963;50.184;9.162;2022-10-17T01:03:37;15.60;99.90
11812;DHT22;5963;50.184;9.162;2022-10-17T01:06:07;15.90;99.90
11812;DHT22;5963;50.184;9.162;2022-10-17T01:08:51;15.90;99.90
11812;DHT22;5963;50.184;9.162;2022-10-17T01:11:27;15.90;99.90
11812;DHT22;5963;50.184;9.162;2022-10-17T01:14:05;15.90;99.90
11812;DHT22;5963;50.184;9.162;2022-10-17T01:16:44;15.80;99.90
11812;DHT22;5963;50.184;9.162;2022-10-17T01:19:45;15.80;99.90
11812;DHT22;5963;50.184;9.162;2022-10-17T01:22:29;15.80;99.90
11812;DHT22;5963;50.184;9.162;2022-10-17T01:28:24;15.60;99.90
11812;DHT22;5963;50.184;9.162;2022-10-17T01:31:08;15.60;99.90
11812;DHT22;5963;50.184;9.162;2022-10-17T01:33:45;15.50;99.90
11812;DHT22;5963;50.184;9.162;2022-10-17T01:36:29;15.50;99.90
11812;DHT22;5963;50.184;9.162;2022-10-17T01:39:05;15.40;99.90
11812;DHT22;5963;50.184;9.162;2022-10-17T01:41:42;15.50;99.90
11812;DHT22;5963;50.184;9.162;2022-10-17T01:44:21;15.80;99.90
11812;DHT22;5963;50.184;9.162;2022-10-17T01:47:02;15.80;99.90
11812;DHT22;5963;50.184;9.162;2022-10-17T01:49:36;15.80;99.90
11812;DHT22;5963;50.184;9.162;2022-10-17T01:52:14;15.80;99.90
11812;DHT22;5963;50.184;9.162;2022-10-17T01:54:47;15.70;99.90
11812;DHT22;5963;50.184;9.162;2022-10-17T01:57:22;15.70;99.90
11812;DHT22;5963;50.184;9.162;2022-10-17T01:59:56;15.60;99.90
11812;DHT22;5963;50.184;9.162;2022-10-17T02:02:32;15.50;99.90
11812;DHT22;5963;50.184;9.162;2022-10-17T02:05:03;15.40;99.90
11812;DHT22;5963;50.184;9.162;2022-10-17T02:07:36;15.40;99.90
11812;DHT22;5963;50.184;9.162;2022-10-17T02:10:20;15.30;99.90
11812;DHT22;5963;50.184;9.162;2022-10-17T02:12:55;15.20;99.90
11812;DHT22;5963;50.184;9.162;2022-10-17T02:15:51;15.00;99.90
11812;DHT22;5963;50.184;9.162;2022-10-17T02:18:40;14.80;99.90
11812;DHT22;5963;50.184;9.162;2022-10-17T02:21:23;14.80;99.90
11812;DHT22;5963;50.184;9.162;2022-10-17T02:24:14;14.70;99.90
11812;DHT22;5963;50.184;9.162;2022-10-17T02:26:54;14.60;99.90
11812;DHT22;5963;50.184;9.162;2022-10-17T02:29:30;14.50;99.90
11812;DHT22;5963;50.184;9.162;2022-10-17T02:32:08;14.50;99.90
11812;DHT22;5963;50.184;9.162;2022-10-17T02:34:47;14.40;99.90
11812;DHT22;5963;50.184;9.162;2022-10-17T02:37:22;14.30;99.90
11812;DHT22;5963;50.184;9.162;2022-10-17T02:39:52;14.20;99.90
11812;DHT22;5963;50.184;9.162;2022-10-17T02:42:24;14.30;99.90
11812;DHT22;5963;50.184;9.162;2022-10-17T02:45:00;14.20;99.90
11812;DHT22;5963;50.184;9.162;2022-10-17T02:47:33;14.30;99.90
11812;DHT22;5963;50.184;9.162;2022-10-17T02:50:10;14.30;99.90
11812;DHT22;5963;50.184;9.162;2022-10-17T02:52:45;14.40;99.90
11812;DHT22;5963;50.184;9.162;2022-10-17T02:55:23;14.50;99.90
11812;DHT22;5963;50.184;9.162;2022-10-17T02:58:01;14.80;99.90
11812;DHT22;5963;50.184;9.162;2022-10-17T03:00:33;15.00;99.90
11812;DHT22;5963;50.184;9.162;2022-10-17T03:03:18;15.20;99.90
11812;DHT22;5963;50.184;9.162;2022-10-17T03:06:04;15.30;99.90
11812;DHT22;5963;50.184;9.162;2022-10-17T03:08:34;15.40;99.90
11812;DHT22;5963;50.184;9.162;2022-10-17T03:11:11;15.40;99.90
11812;DHT22;5963;50.184;9.162;2022-10-17T03:13:49;15.50;99.90
11812;DHT22;5963;50.184;9.162;2022-10-17T03:16:24;15.50;99.90
11812;DHT22;5963;50.184;9.162;2022-10-17T03:18:54;15.30;99.90
11812;DHT22;5963;50.184;9.162;2022-10-17T03:21:26;15.20;99.90
11812;DHT22;5963;50.184;9.162;2022-10-17T03:23:56;15.00;99.90
11812;DHT22;5963;50.184;9.162;2022-10-17T03:26:30;14.90;99.90
11812;DHT22;5963;50.184;9.162;2022-10-17T03:29:00;14.80;99.90
11812;DHT22;5963;50.184;9.162;2022-10-17T03:31:30;14.80;99.90
11812;DHT22;5963;50.184;9.162;2022-10-17T03:34:09;14.80;99.90
11812;DHT22;5963;50.184;9.162;2022-10-17T03:36:47;14.90;99.90
11812;DHT22;5963;50.184;9.162;2022-10-17T03:39:20;14.90;99.90
11812;DHT22;5963;50.184;9.162;2022-10-17T03:41:53;15.00;99.90
11812;DHT22;5963;50.184;9.162;2022-10-17T03:44:23;14.90;99.90
11812;DHT22;5963;50.184;9.162;2022-10-17T03:46:53;14.80;99.90
11812;DHT22;5963;50.184;9.162;2022-10-17T03:49:23;14.80;99.90
11812;DHT22;5963;50.184;9.162;2022-10-17T03:51:58;14.80;99.90
11812;DHT22;5963;50.184;9.162;2022-10-17T03:54:28;14.80;99.90
11812;DHT22;5963;50.184;9.162;2022-10-17T03:57:01;14.80;99.90
11812;DHT22;5963;50.184;9.162;2022-10-17T03:59:31;14.70;99.90
11812;DHT22;5963;50.184;9.162;2022-10-17T04:02:11;14.80;99.90
11812;DHT22;5963;50.184;9.162;2022-10-17T04:04:41;14.80;99.90
11812;DHT22;5963;50.184;9.162;2022-10-17T04:07:20;14.80;99.90
11812;DHT22;5963;50.184;9.162;2022-10-17T04:09:51;14.70;99.90
11812;DHT22;5963;50.184;9.162;2022-10-17T04:12:21;14.50;99.90
11812;DHT22;5963;50.184;9.162;2022-10-17T04:14:55;14.30;99.90
11812;DHT22;5963;50.184;9.162;2022-10-17T04:17:39;14.20;99.90
11812;DHT22;5963;50.184;9.162;2022-10-17T04:20:16;14.00;99.90
11812;DHT22;5963;50.184;9.162;2022-10-17T04:22:47;13.80;99.90
11812;DHT22;5963;50.184;9.162;2022-10-17T04:25:28;13.60;99.90
11812;DHT22;5963;50.184;9.162;2022-10-17T04:28:03;13.60;99.90
11812;DHT22;5963;50.184;9.162;2022-10-17T04:30:42;13.60;99.90
11812;DHT22;5963;50.184;9.162;2022-10-17T04:33:18;13.60;99.90
11812;DHT22;5963;50.184;9.162;2022-10-17T04:36:00;13.70;99.90
11812;DHT22;5963;50.184;9.162;2022-10-17T04:38:39;13.70;99.90
11812;DHT22;5963;50.184;9.162;2022-10-17T04:41:11;13.70;99.90
11812;DHT22;5963;50.184;9.162;2022-10-17T04:43:42;13.80;99.90
11812;DHT22;5963;50.184;9.162;2022-10-17T04:46:19;13.90;99.90
11812;DHT22;5963;50.184;9.162;2022-10-17T04:48:54;14.00;99.90
11812;DHT22;5963;50.184;9.162;2022-10-17T04:51:28;13.90;99.90
11812;DHT22;5963;50.184;9.162;2022-10-17T04:53:59;13.90;99.90
11812;DHT22;5963;50.184;9.162;2022-10-17T04:56:29;13.90;99.90
11812;DHT22;5963;50.184;9.162;2022-10-17T04:59:01;13.80;99.90
11812;DHT22;5963;50.184;9.162;2022-10-17T05:01:40;13.80;99.90
11812;DHT22;5963;50.184;9.162;2022-10-17T05:04:10;13.80;99.90
11812;DHT22;5963;50.184;9.162;2022-10-17T05:06:44;13.80;99.90
11812;DHT22;5963;50.184;9.162;2022-10-17T05:09:23;13.70;99.90
11812;DHT22;5963;50.184;9.162;2022-10-17T05:11:56;13.70;99.90
11812;DHT22;5963;50.184;9.162;2022-10-17T05:14:26;13.60;99.90
11812;DHT22;5963;50.184;9.162;2022-10-17T05:16:59;13.70;99.90
11812;DHT22;5963;50.184;9.162;2022-10-17T05:19:36;13.60;99.90
11812;DHT22;5963;50.184;9.162;2022-10-17T05:22:06;13.60;99.90
11812;DHT22;5963;50.184;9.162;2022-10-17T05:24:39;13.50;99.90
11812;DHT22;5963;50.184;9.162;2022-10-17T05:27:09;13.50;99.90
11812;DHT22;5963;50.184;9.162;2022-10-17T05:29:41;13.50;99.90
11812;DHT22;5963;50.184;9.162;2022-10-17T05:32:20;13.50;99.90
11812;DHT22;5963;50.184;9.162;2022-10-17T05:34:52;13.60;99.90
11812;DHT22;5963;50.184;9.162;2022-10-17T05:37:27;13.60;99.90
11812;DHT22;5963;50.184;9.162;2022-10-17T05:40:06;13.60;99.90
11812;DHT22;5963;50.184;9.162;2022-10-17T05:42:49;13.60;99.90
11812;DHT22;5963;50.184;9.162;2022-10-17T05:45:21;13.60;99.90
11812;DHT22;5963;50.184;9.162;2022-10-17T05:47:54;13.60;99.90
11812;DHT22;5963;50.184;9.162;2022-10-17T05:50:24;13.50;99.90
11812;DHT22;5963;50.184;9.162;2022-10-17T05:52:59;13.50;99.90
11812;DHT22;5963;50.184;9.162;2022-10-17T05:55:53;13.50;99.90
11812;DHT22;5963;50.184;9.162;2022-10-17T05:58:26;13.40;99.90
11812;DHT22;5963;50.184;9.162;2022-10-17T06:01:22;13.40;99.90
11812;DHT22;5963;50.184;9.162;2022-10-17T06:03:58;13.30;99.90
11812;DHT22;5963;50.184;9.162;2022-10-17T06:06:29;13.30;99.90
11812;DHT22;5963;50.184;9.162;2022-10-17T06:09:03;13.40;99.90
11812;DHT22;5963;50.184;9.162;2022-10-17T06:11:35;13.40;99.90
11812;DHT22;5963;50.184;9.162;2022-10-17T06:14:12;13.40;99.90
11812;DHT22;5963;50.184;9.162;2022-10-17T06:16:43;13.40;99.90
11812;DHT22;5963;50.184;9.162;2022-10-17T06:19:13;13.40;99.90
11812;DHT22;5963;50.184;9.162;2022-10-17T06:21:47;13.30;99.90
11812;DHT22;5963;50.184;9.162;2022-10-17T06:24:17;13.30;99.90
11812;DHT22;5963;50.184;9.162;2022-10-17T06:26:48;13.30;99.90
11812;DHT22;5963;50.184;9.162;2022-10-17T06:29:19;13.30;99.90
11812;DHT22;5963;50.184;9.162;2022-10-17T06:31:52;13.20;99.90
11812;DHT22;5963;50.184;9.162;2022-10-17T06:34:24;13.30;99.90
11812;DHT22;5963;50.184;9.162;2022-10-17T06:36:56;13.30;99.90
11812;DHT22;5963;50.184;9.162;2022-10-17T06:39:31;13.30;99.90
11812;DHT22;5963;50.184;9.162;2022-10-17T06:42:06;13.40;99.90
11812;DHT22;5963;50.184;9.162;2022-10-17T06:44:42;13.50;99.90
11812;DHT22;5963;50.184;9.162;2022-10-17T06:47:14;13.60;99.90
11812;DHT22;5963;50.184;9.162;2022-10-17T06:49:48;13.70;99.90
11812;DHT22;5963;50.184;9.162;2022-10-17T06:52:21;13.80;99.90
11812;DHT22;5963;50.184;9.162;2022-10-17T06:54:52;13.90;99.90
11812;DHT22;5963;50.184;9.162;2022-10-17T06:57:25;14.10;99.90
11812;DHT22;5963;50.184;9.162;2022-10-17T06:59:56;14.30;99.90
11812;DHT22;5963;50.184;9.162;2022-10-17T07:02:26;14.50;99.90
11812;DHT22;5963;50.184;9.162;2022-10-17T07:04:59;14.70;99.90
11812;DHT22;5963;50.184;9.162;2022-10-17T07:07:32;14.80;99.90
11812;DHT22;5963;50.184;9.162;2022-10-17T07:10:04;15.00;99.90
11812;DHT22;5963;50.184;9.162;2022-10-17T07:12:43;15.10;99.90
11812;DHT22;5963;50.184;9.162;2022-10-17T07:15:14;15.20;99.90
11812;DHT22;5963;50.184;9.162;2022-10-17T07:17:51;15.30;99.90
11812;DHT22;5963;50.184;9.162;2022-10-17T07:20:25;15.40;99.90
11812;DHT22;5963;50.184;9.162;2022-10-17T07:22:55;15.50;99.90
11812;DHT22;5963;50.184;9.162;2022-10-17T07:25:27;15.60;99.90
11812;DHT22;5963;50.184;9.162;2022-10-17T07:28:06;15.70;99.90
11812;DHT22;5963;50.184;9.162;2022-10-17T07:30:35;15.70;99.90
11812;DHT22;5963;50.184;9.162;2022-10-17T07:33:04;15.80;99.90
11812;DHT22;5963;50.184;9.162;2022-10-17T07:35:36;15.80;99.90
11812;DHT22;5963;50.184;9.162;2022-10-17T07:38:08;15.90;99.90
11812;DHT22;5963;50.184;9.162;2022-10-17T07:40:38;16.00;99.90
11812;DHT22;5963;50.184;9.162;2022-10-17T07:43:09;16.10;99.90
11812;DHT22;5963;50.184;9.162;2022-10-17T07:45:39;16.20;99.90
11812;DHT22;5963;50.184;9.162;2022-10-17T07:48:09;16.40;99.90
11812;DHT22;5963;50.184;9.162;2022-10-17T07:50:40;16.50;99.90
11812;DHT22;5963;50.184;9.162;2022-10-17T07:53:10;16.60;99.90
11812;DHT22;5963;50.184;9.162;2022-10-17T07:55:41;16.80;99.90
11812;DHT22;5963;50.184;9.162;2022-10-17T07:58:15;16.80;99.90
11812;DHT22;5963;50.184;9.162;2022-10-17T08:00:47;16.90;99.90
11812;DHT22;5963;50.184;9.162;2022-10-17T08:03:18;17.10;99.90
11812;DHT22;5963;50.184;9.162;2022-10-17T08:05:48;17.30;99.90
11812;DHT22;5963;50.184;9.162;2022-10-17T08:08:18;17.50;99.90
11812;DHT22;5963;50.184;9.162;2022-10-17T08:10:48;17.60;99.90
11812;DHT22;5963;50.184;9.162;2022-10-17T08:13:20;17.70;99.90
11812;DHT22;5963;50.184;9.162;2022-10-17T08:15:50;17.80;99.90
11812;DHT22;5963;50.184;9.162;2022-10-17T08:18:20;17.80;99.90
11812;DHT22;5963;50.184;9.162;2022-10-17T08:20:50;17.80;99.90
11812;DHT22;5963;50.184;9.162;2022-10-17T08:23:27;17.90;99.90
11812;DHT22;5963;50.184;9.162;2022-10-17T08:26:00;18.00;99.90
11812;DHT22;5963;50.184;9.162;2022-10-17T08:28:33;18.10;99.90
11812;DHT22;5963;50.184;9.162;2022-10-17T08:31:02;18.20;99.90
11812;DHT22;5963;50.184;9.162;2022-10-17T08:33:32;18.40;99.90
11812;DHT22;5963;50.184;9.162;2022-10-17T08:36:03;18.50;99.90
11812;DHT22;5963;50.184;9.162;2022-10-17T08:38:34;18.70;99.90
11812;DHT22;5963;50.184;9.162;2022-10-17T08:41:19;18.80;99.90
11812;DHT22;5963;50.184;9.162;2022-10-17T08:43:59;18.90;99.90
11812;DHT22;5963;50.184;9.162;2022-10-17T08:46:35;19.10;99.90
11812;DHT22;5963;50.184;9.162;2022-10-17T08:49:09;19.30;99.90
11812;DHT22;5963;50.184;9.162;2022-10-17T08:51:46;19.50;99.90
11812;DHT22;5963;50.184;9.162;2022-10-17T08:54:36;19.70;99.90
11812;DHT22;5963;50.184;9.162;2022-10-17T08:57:10;19.80;99.90
11812;DHT22;5963;50.184;9.162;2022-10-17T08:59:48;19.70;99.90
11812;DHT22;5963;50.184;9.162;2022-10-17T09:02:35;19.80;99.90
11812;DHT22;5963;50.184;9.162;2022-10-17T09:05:34;19.90;99.90
11812;DHT22;5963;50.184;9.162;2022-10-17T09:08:15;20.10;99.90
11812;DHT22;5963;50.184;9.162;2022-10-17T09:10:57;20.10;99.90
11812;DHT22;5963;50.184;9.162;2022-10-17T09:13:42;20.10;99.90
11812;DHT22;5963;50.184;9.162;2022-10-17T09:16:35;20.10;99.90
11812;DHT22;5963;50.184;9.162;2022-10-17T09:19:14;20.30;99.90
11812;DHT22;5963;50.184;9.162;2022-10-17T09:21:51;20.50;99.90
11812;DHT22;5963;50.184;9.162;2022-10-17T09:24:26;20.50;99.90
11812;DHT22;5963;50.184;9.162;2022-10-17T09:26:58;20.60;99.90
11812;DHT22;5963;50.184;9.162;2022-10-17T09:29:31;20.80;99.90
11812;DHT22;5963;50.184;9.162;2022-10-17T09:32:12;20.80;99.90
11812;DHT22;5963;50.184;9.162;2022-10-17T09:34:47;21.00;99.90
11812;DHT22;5963;50.184;9.162;2022-10-17T09:37:26;21.20;99.90
11812;DHT22;5963;50.184;9.162;2022-10-17T09:39:58;21.40;99.90
11812;DHT22;5963;50.184;9.162;2022-10-17T09:42:29;21.50;99.90
11812;DHT22;5963;50.184;9.162;2022-10-17T09:45:16;21.50;99.90
11812;DHT22;5963;50.184;9.162;2022-10-17T09:47:57;21.40;99.90
11812;DHT22;5963;50.184;9.162;2022-10-17T09:50:31;21.30;99.90
11812;DHT22;5963;50.184;9.162;2022-10-17T09:53:04;21.30;99.90
11812;DHT22;5963;50.184;9.162;2022-10-17T09:55:41;21.40;99.90
11812;DHT22;5963;50.184;9.162;2022-10-17T09:58:15;21.40;99.90
11812;DHT22;5963;50.184;9.162;2022-10-17T10:00:46;21.40;99.90
11812;DHT22;5963;50.184;9.162;2022-10-17T10:03:20;21.40;99.90
11812;DHT22;5963;50.184;9.162;2022-10-17T10:06:00;21.50;99.90
11812;DHT22;5963;50.184;9.162;2022-10-17T10:08:46;21.50;99.90
11812;DHT22;5963;50.184;9.162;2022-10-17T10:11:17;21.70;99.90
11812;DHT22;5963;50.184;9.162;2022-10-17T10:13:49;21.80;99.90
11812;DHT22;5963;50.184;9.162;2022-10-17T10:16:21;22.00;99.90
11812;DHT22;5963;50.184;9.162;2022-10-17T10:18:55;22.20;99.90
11812;DHT22;5963;50.184;9.162;2022-10-17T10:21:27;22.40;99.90
11812;DHT22;5963;50.184;9.162;2022-10-17T10:24:05;22.40;99.90
11812;DHT22;5963;50.184;9.162;2022-10-17T10:26:41;22.60;99.90
11812;DHT22;5963;50.184;9.162;2022-10-17T10:29:21;22.80;99.90
11812;DHT22;5963;50.184;9.162;2022-10-17T10:31:52;22.80;99.90
11812;DHT22;5963;50.184;9.162;2022-10-17T10:34:26;22.90;99.90
11812;DHT22;5963;50.184;9.162;2022-10-17T10:37:00;23.00;99.90
11812;DHT22;5963;50.184;9.162;2022-10-17T10:39:37;23.20;99.90
11812;DHT22;5963;50.184;9.162;2022-10-17T10:42:23;23.30;99.90
11812;DHT22;5963;50.184;9.162;2022-10-17T10:44:55;23.30;99.90
11812;DHT22;5963;50.184;9.162;2022-10-17T10:47:27;23.40;99.90
11812;DHT22;5963;50.184;9.162;2022-10-17T10:50:24;23.60;99.90
11812;DHT22;5963;50.184;9.162;2022-10-17T10:53:02;23.80;99.90
11812;DHT22;5963;50.184;9.162;2022-10-17T10:55:39;23.90;99.90
11812;DHT22;5963;50.184;9.162;2022-10-17T10:58:31;23.70;99.90
11812;DHT22;5963;50.184;9.162;2022-10-17T11:01:10;23.80;99.90
11812;DHT22;5963;50.184;9.162;2022-10-17T11:03:46;23.80;99.90
11812;DHT22;5963;50.184;9.162;2022-10-17T11:06:22;24.00;99.90
11812;DHT22;5963;50.184;9.162;2022-10-17T11:09:04;23.80;99.90
11812;DHT22;5963;50.184;9.162;2022-10-17T11:11:39;23.90;99.90
11812;DHT22;5963;50.184;9.162;2022-10-17T11:14:14;24.00;99.90
11812;DHT22;5963;50.184;9.162;2022-10-17T11:16:48;24.30;99.90
11812;DHT22;5963;50.184;9.162;2022-10-17T11:19:23;24.30;99.90
11812;DHT22;5963;50.184;9.162;2022-10-17T11:22:04;24.40;99.90
11812;DHT22;5963;50.184;9.162;2022-10-17T11:24:39;24.70;99.90
11812;DHT22;5963;50.184;9.162;2022-10-17T11:27:10;24.80;99.90
11812;DHT22;5963;50.184;9.162;2022-10-17T11:29:40;24.80;99.90
11812;DHT22;5963;50.184;9.162;2022-10-17T11:32:16;24.60;99.90
11812;DHT22;5963;50.184;9.162;2022-10-17T11:34:51;24.70;99.90
11812;DHT22;5963;50.184;9.162;2022-10-17T11:37:27;24.60;99.90
11812;DHT22;5963;50.184;9.162;2022-10-17T11:40:02;24.70;99.90
11812;DHT22;5963;50.184;9.162;2022-10-17T11:42:37;24.80;99.90
11812;DHT22;5963;50.184;9.162;2022-10-17T11:45:12;24.90;99.90
11812;DHT22;5963;50.184;9.162;2022-10-17T11:47:47;24.80;99.90
11812;DHT22;5963;50.184;9.162;2022-10-17T11:50:23;24.60;99.90
11812;DHT22;5963;50.184;9.162;2022-10-17T11:53:19;24.70;99.90
11812;DHT22;5963;50.184;9.162;2022-10-17T11:55:51;24.70;99.90
11812;DHT22;5963;50.184;9.162;2022-10-17T11:58:31;24.70;99.90
11812;DHT22;5963;50.184;9.162;2022-10-17T12:01:12;24.90;99.90
11812;DHT22;5963;50.184;9.162;2022-10-17T12:03:56;24.70;99.90
11812;DHT22;5963;50.184;9.162;2022-10-17T12:06:38;24.40;99.90
11812;DHT22;5963;50.184;9.162;2022-10-17T12:09:24;24.30;99.90
11812;DHT22;5963;50.184;9.162;2022-10-17T12:11:57;24.50;99.90
11812;DHT22;5963;50.184;9.162;2022-10-17T12:14:40;24.30;99.90
11812;DHT22;5963;50.184;9.162;2022-10-17T12:17:24;24.20;99.90
11812;DHT22;5963;50.184;9.162;2022-10-17T12:20:23;24.00;99.90
11812;DHT22;5963;50.184;9.162;2022-10-17T12:22:57;23.90;99.90
11812;DHT22;5963;50.184;9.162;2022-10-17T12:25:32;24.10;99.90
11812;DHT22;5963;50.184;9.162;2022-10-17T12:28:13;24.20;99.90
11812;DHT22;5963;50.184;9.162;2022-10-17T12:30:50;24.00;99.90
11812;DHT22;5963;50.184;9.162;2022-10-17T12:33:23;24.10;99.90
11812;DHT22;5963;50.184;9.162;2022-10-17T12:42:01;24.10;99.90
11812;DHT22;5963;50.184;9.162;2022-10-17T12:44:37;24.20;99.90
11812;DHT22;5963;50.184;9.162;2022-10-17T12:47:27;23.90;99.90
11812;DHT22;5963;50.184;9.162;2022-10-17T12:49:58;23.70;99.90
11812;DHT22;5963;50.184;9.162;2022-10-17T12:52:57;23.80;99.90
11812;DHT22;5963;50.184;9.162;2022-10-17T12:55:30;24.00;99.90
11812;DHT22;5963;50.184;9.162;2022-10-17T12:58:13;24.00;99.90
11812;DHT22;5963;50.184;9.162;2022-10-17T13:00:49;23.90;99.90
11812;DHT22;5963;50.184;9.162;2022-10-17T13:03:51;24.00;99.90
11812;DHT22;5963;50.184;9.162;2022-10-17T13:06:22;24.30;99.90
11812;DHT22;5963;50.184;9.162;2022-10-17T13:08:57;24.50;99.90
11812;DHT22;5963;50.184;9.162;2022-10-17T13:11:34;24.70;99.90
11812;DHT22;5963;50.184;9.162;2022-10-17T13:14:12;24.40;99.90
11812;DHT22;5963;50.184;9.162;2022-10-17T13:16:54;24.30;99.90
11812;DHT22;5963;50.184;9.162;2022-10-17T13:19:27;24.10;99.90
11812;DHT22;5963;50.184;9.162;2022-10-17T13:21:59;24.30;99.90
11812;DHT22;5963;50.184;9.162;2022-10-17T13:24:36;24.40;99.90
11812;DHT22;5963;50.184;9.162;2022-10-17T13:27:20;24.40;99.90
11812;DHT22;5963;50.184;9.162;2022-10-17T13:29:51;24.40;99.90
11812;DHT22;5963;50.184;9.162;2022-10-17T13:32:25;24.60;99.90
11812;DHT22;5963;50.184;9.162;2022-10-17T13:35:10;24.50;99.90
11812;DHT22;5963;50.184;9.162;2022-10-17T13:37:41;24.10;99.90
11812;DHT22;5963;50.184;9.162;2022-10-17T13:40:15;24.10;99.90
11812;DHT22;5963;50.184;9.162;2022-10-17T13:43:11;24.00;99.90
11812;DHT22;5963;50.184;9.162;2022-10-17T13:45:45;24.00;99.90
11812;DHT22;5963;50.184;9.162;2022-10-17T13:48:21;23.50;99.90
11812;DHT22;5963;50.184;9.162;2022-10-17T13:50:53;23.40;99.90
11812;DHT22;5963;50.184;9.162;2022-10-17T13:53:32;23.60;99.90
11812;DHT22;5963;50.184;9.162;2022-10-17T13:56:04;23.60;99.90
11812;DHT22;5963;50.184;9.162;2022-10-17T13:58:57;23.50;99.90
11812;DHT22;5963;50.184;9.162;2022-10-17T14:01:31;23.30;99.90
11812;DHT22;5963;50.184;9.162;2022-10-17T14:04:01;23.30;99.90
11812;DHT22;5963;50.184;9.162;2022-10-17T14:06:50;23.30;99.90
11812;DHT22;5963;50.184;9.162;2022-10-17T14:09:23;23.40;99.90
11812;DHT22;5963;50.184;9.162;2022-10-17T14:12:00;23.40;99.90
11812;DHT22;5963;50.184;9.162;2022-10-17T14:14:31;23.20;99.90
11812;DHT22;5963;50.184;9.162;2022-10-17T14:17:26;23.00;99.90
11812;DHT22;5963;50.184;9.162;2022-10-17T14:20:00;23.00;99.90
11812;DHT22;5963;50.184;9.162;2022-10-17T14:22:51;22.90;99.90
11812;DHT22;5963;50.184;9.162;2022-10-17T14:25:41;22.90;99.90
11812;DHT22;5963;50.184;9.162;2022-10-17T14:28:15;22.90;99.90
11812;DHT22;5963;50.184;9.162;2022-10-17T14:30:47;23.00;99.90
11812;DHT22;5963;50.184;9.162;2022-10-17T14:33:28;23.10;99.90
11812;DHT22;5963;50.184;9.162;2022-10-17T14:36:00;22.90;99.90
11812;DHT22;5963;50.184;9.162;2022-10-17T14:38:31;22.80;99.90
11812;DHT22;5963;50.184;9.162;2022-10-17T14:41:04;22.80;99.90
11812;DHT22;5963;50.184;9.162;2022-10-17T14:43:58;22.70;99.90
11812;DHT22;5963;50.184;9.162;2022-10-17T14:46:29;22.40;99.90
11812;DHT22;5963;50.184;9.162;2022-10-17T14:49:03;22.40;99.90
11812;DHT22;5963;50.184;9.162;2022-10-17T14:51:34;22.20;99.90
11812;DHT22;5963;50.184;9.162;2022-10-17T14:54:26;22.00;99.90
11812;DHT22;5963;50.184;9.162;2022-10-17T14:56:57;21.90;99.90
11812;DHT22;5963;50.184;9.162;2022-10-17T14:59:27;21.80;99.90
11812;DHT22;5963;50.184;9.162;2022-10-17T15:02:17;21.60;99.90
11812;DHT22;5963;50.184;9.162;2022-10-17T15:04:49;21.40;99.90
11812;DHT22;5963;50.184;9.162;2022-10-17T15:07:19;21.20;99.90
11812;DHT22;5963;50.184;9.162;2022-10-17T15:09:52;21.10;99.90
11812;DHT22;5963;50.184;9.162;2022-10-17T15:12:28;20.90;99.90
11812;DHT22;5963;50.184;9.162;2022-10-17T15:14:59;20.80;99.90
11812;DHT22;5963;50.184;9.162;2022-10-17T15:17:30;20.80;99.90
11812;DHT22;5963;50.184;9.162;2022-10-17T15:20:05;20.70;99.90
11812;DHT22;5963;50.184;9.162;2022-10-17T15:22:41;20.70;99.90
11812;DHT22;5963;50.184;9.162;2022-10-17T15:25:11;20.70;99.90
11812;DHT22;5963;50.184;9.162;2022-10-17T15:27:41;20.60;99.90
11812;DHT22;5963;50.184;9.162;2022-10-17T15:30:18;20.30;99.90
11812;DHT22;5963;50.184;9.162;2022-10-17T15:32:54;20.20;99.90
11812;DHT22;5963;50.184;9.162;2022-10-17T15:35:25;20.10;99.90
11812;DHT22;5963;50.184;9.162;2022-10-17T15:37:58;20.10;99.90
11812;DHT22;5963;50.184;9.162;2022-10-17T15:40:31;20.00;99.90
11812;DHT22;5963;50.184;9.162;2022-10-17T15:43:01;20.00;99.90
11812;DHT22;5963;50.184;9.162;2022-10-17T15:45:33;20.00;99.90
11812;DHT22;5963;50.184;9.162;2022-10-17T15:48:06;19.90;99.90
11812;DHT22;5963;50.184;9.162;2022-10-17T15:50:37;19.70;99.90
11812;DHT22;5963;50.184;9.162;2022-10-17T15:53:12;19.60;99.90
11812;DHT22;5963;50.184;9.162;2022-10-17T15:55:42;19.40;99.90
11812;DHT22;5963;50.184;9.162;2022-10-17T15:58:16;19.30;99.90
11812;DHT22;5963;50.184;9.162;2022-10-17T16:00:51;19.20;99.90
11812;DHT22;5963;50.184;9.162;2022-10-17T16:03:22;19.10;99.90
11812;DHT22;5963;50.184;9.162;2022-10-17T16:05:54;19.00;99.90
11812;DHT22;5963;50.184;9.162;2022-10-17T16:08:24;18.90;99.90
11812;DHT22;5963;50.184;9.162;2022-10-17T16:10:55;18.80;99.90
11812;DHT22;5963;50.184;9.162;2022-10-17T16:13:26;18.70;99.90
11812;DHT22;5963;50.184;9.162;2022-10-17T16:15:57;18.70;99.90
11812;DHT22;5963;50.184;9.162;2022-10-17T16:18:29;18.60;99.90
11812;DHT22;5963;50.184;9.162;2022-10-17T16:21:01;18.50;99.90
11812;DHT22;5963;50.184;9.162;2022-10-17T16:23:31;18.40;99.90
11812;DHT22;5963;50.184;9.162;2022-10-17T16:26:06;18.30;99.90
11812;DHT22;5963;50.184;9.162;2022-10-17T16:28:37;18.30;99.90
11812;DHT22;5963;50.184;9.162;2022-10-17T16:31:18;18.20;99.90
11812;DHT22;5963;50.184;9.162;2022-10-17T16:33:50;18.10;99.90
11812;DHT22;5963;50.184;9.162;2022-10-17T16:36:23;18.10;99.90
11812;DHT22;5963;50.184;9.162;2022-10-17T16:38:56;18.00;99.90
11812;DHT22;5963;50.184;9.162;2022-10-17T16:41:33;18.00;99.90
11812;DHT22;5963;50.184;9.162;2022-10-17T16:44:06;18.00;99.90
11812;DHT22;5963;50.184;9.162;2022-10-17T16:46:37;18.10;99.90
11812;DHT22;5963;50.184;9.162;2022-10-17T16:49:08;18.10;99.90